Terminal Aerodrome Forecast
Issued by NWS

Home | Current Version | Previous Version | Text Only | Print | Product List | Glossary Off
Versions: 1 2 3 4 5 6 7 8 9 10 11 12 13 14 15 16 17 18 19 20 21 22 23 24 25 26 27 28 29 30 31 32 33 34 35 36

000
FTUS43 KGRB 202300
TAFRHI
TAF
KRHI 202337Z 2100/2124 01007KT P6SM SCT025 BKN050
      TEMPO 2100/2104 5SM -RA BR SCT015 BKN025
     FM210400 35004KT P6SM BKN030
     FM211400 05004KT P6SM SCT035
     FM211800 07004KT P6SM SKC=

USA.gov is the U.S. government's official web portal to all federal, state and local government web resources and services.